Time;durP1;ratioP1;P1;durP2;ratioP2;P2;SDS_P1;SDS_P2;PMS_P1;PMS_P2;Temp;Humidity;BMP_temperature;BMP_pressure;BME280_temperature;BME280_humidity;BME280_pressure;Samples;Min_cycle;Max_cycle;Signal;HPM_P1;HPM_P2
2021/08/30 00:00:44;;;;;;;2.97;1.25;;;19.70;65.80;;;;;;5052761;28;20107;-71
2021/08/30 00:03:10;;;;;;;3.30;1.67;;;19.70;65.90;;;;;;5052336;28;20021;-71
2021/08/30 00:05:35;;;;;;;3.65;1.52;;;19.70;65.90;;;;;;5052773;28;20430;-71
2021/08/30 00:08:01;;;;;;;4.40;1.98;;;19.70;65.90;;;;;;5052650;28;20028;-71
2021/08/30 00:10:26;;;;;;;2.40;1.30;;;19.70;65.90;;;;;;5052961;28;20028;-71
2021/08/30 00:12:52;;;;;;;4.20;1.67;;;19.70;65.90;;;;;;5052685;28;20025;-71
2021/08/30 00:15:18;;;;;;;3.58;1.55;;;19.70;65.90;;;;;;5052745;28;20033;-71
2021/08/30 00:17:47;;;;;;;3.60;1.40;;;19.70;65.90;;;;;;5052620;28;20028;-71
2021/08/30 00:20:17;;;;;;;4.22;1.85;;;19.70;65.90;;;;;;5052785;28;20041;-71
2021/08/30 00:22:44;;;;;;;2.80;1.40;;;19.70;66.00;;;;;;5052599;28;20029;-71
2021/08/30 00:25:11;;;;;;;2.80;1.50;;;19.70;66.00;;;;;;5052801;28;20025;-71
2021/08/30 00:27:37;;;;;;;2.85;1.33;;;19.70;65.90;;;;;;5052875;28;20074;-71
2021/08/30 00:30:04;;;;;;;4.28;1.42;;;19.70;65.90;;;;;;5052487;28;20033;-71
2021/08/30 00:32:29;;;;;;;2.97;1.40;;;19.70;65.90;;;;;;5052399;28;20487;-71
2021/08/30 00:34:55;;;;;;;3.70;1.63;;;19.70;65.90;;;;;;5051165;28;20029;-71
2021/08/30 00:37:20;;;;;;;2.65;1.52;;;19.70;65.90;;;;;;5052345;28;20102;-71
2021/08/30 00:39:46;;;;;;;3.38;1.67;;;19.70;66.00;;;;;;5052520;28;20033;-71
2021/08/30 00:42:13;;;;;;;2.53;1.42;;;19.70;66.00;;;;;;5052397;28;20033;-71
2021/08/30 00:44:38;;;;;;;2.75;1.50;;;19.70;65.90;;;;;;5051131;28;20028;-71
2021/08/30 00:47:04;;;;;;;3.42;1.60;;;19.70;65.90;;;;;;5052570;28;20553;-71
2021/08/30 00:49:30;;;;;;;4.03;1.80;;;19.70;66.00;;;;;;5052262;28;20033;-71
2021/08/30 00:51:56;;;;;;;3.00;1.50;;;19.60;66.00;;;;;;5052455;28;20021;-71
2021/08/30 00:54:24;;;;;;;3.33;1.60;;;19.70;66.00;;;;;;5052411;28;20025;-71
2021/08/30 00:56:49;;;;;;;3.10;1.55;;;19.70;66.00;;;;;;5052286;28;20082;-71
2021/08/30 00:59:15;;;;;;;3.33;1.55;;;19.70;66.00;;;;;;5052122;28;20069;-70
2021/08/30 01:01:41;;;;;;;4.22;2.03;;;19.60;65.90;;;;;;5052171;28;20029;-70
2021/08/30 01:04:09;;;;;;;6.35;2.03;;;19.70;66.00;;;;;;5052113;28;20083;-71
2021/08/30 01:06:52;;;;;;;3.42;1.75;;;19.70;66.00;;;;;;5052103;28;20061;-72
2021/08/30 01:09:47;;;;;;;3.47;1.40;;;19.70;66.00;;;;;;5052346;28;20025;-69
2021/08/30 01:12:22;;;;;;;4.65;1.92;;;19.70;66.00;;;;;;5048918;28;20396;-72
2021/08/30 01:14:59;;;;;;;3.42;1.63;;;19.70;66.00;;;;;;5054021;28;20025;-71
2021/08/30 01:17:26;;;;;;;2.85;1.63;;;19.70;66.10;;;;;;5054358;28;20083;-71
2021/08/30 01:20:10;;;;;;;3.85;1.70;;;19.60;66.10;;;;;;5055606;28;20037;-71
2021/08/30 01:22:40;;;;;;;4.10;1.50;;;19.70;66.00;;;;;;5055466;28;20032;-71
2021/08/30 01:25:06;;;;;;;4.65;1.83;;;19.60;66.10;;;;;;5055455;28;20476;-72
2021/08/30 01:27:33;;;;;;;2.97;1.70;;;19.60;66.10;;;;;;5055389;28;20036;-72
2021/08/30 01:30:06;;;;;;;3.50;1.40;;;19.60;66.10;;;;;;5055671;28;20476;-71
2021/08/30 01:32:37;;;;;;;2.95;1.50;;;19.60;66.10;;;;;;5055345;28;20111;-71
2021/08/30 01:35:06;;;;;;;3.97;1.60;;;19.60;66.10;;;;;;5055327;28;20208;-71
2021/08/30 01:37:33;;;;;;;5.00;2.38;;;19.60;66.10;;;;;;5054979;28;20517;-71
2021/08/30 01:40:01;;;;;;;3.15;1.30;;;19.60;66.10;;;;;;5055184;28;20036;-69
2021/08/30 01:42:29;;;;;;;3.10;1.58;;;19.60;66.10;;;;;;5055287;28;20388;-71
2021/08/30 01:44:55;;;;;;;3.63;1.52;;;19.60;66.10;;;;;;5055360;28;20060;-72
2021/08/30 01:47:21;;;;;;;3.13;1.58;;;19.60;66.10;;;;;;5055129;28;20071;-70
2021/08/30 01:49:52;;;;;;;2.80;1.52;;;19.60;66.10;;;;;;5055279;28;20036;-71
2021/08/30 01:52:18;;;;;;;4.32;1.65;;;19.60;66.20;;;;;;5053848;28;20021;-70
2021/08/30 01:54:44;;;;;;;3.67;1.83;;;19.60;66.20;;;;;;5054872;28;20075;-70
2021/08/30 01:57:11;;;;;;;4.97;1.90;;;19.60;66.10;;;;;;5054922;28;20461;-71
2021/08/30 02:02:23;;;;;;;3.13;1.50;;;19.60;66.20;;;;;;5054862;28;20561;-71
2021/08/30 02:04:48;;;;;;;4.18;1.83;;;19.60;66.20;;;;;;5054726;28;20029;-71
2021/08/30 02:07:13;;;;;;;3.65;1.63;;;19.60;66.20;;;;;;5054879;28;20017;-71
2021/08/30 02:09:39;;;;;;;4.32;2.00;;;19.60;66.20;;;;;;5054689;28;20028;-71
2021/08/30 02:12:05;;;;;;;3.88;1.90;;;19.50;66.20;;;;;;5054631;28;20021;-71
2021/08/30 02:14:31;;;;;;;2.95;1.60;;;19.60;66.20;;;;;;5054704;28;20025;-71
2021/08/30 02:17:01;;;;;;;3.83;1.92;;;19.60;66.20;;;;;;5054486;28;20021;-71
2021/08/30 02:19:45;;;;;;;3.50;1.63;;;19.60;66.20;;;;;;5054468;28;20045;-71
2021/08/30 02:22:15;;;;;;;4.18;2.00;;;19.60;66.20;;;;;;5054554;28;20111;-71
2021/08/30 02:24:50;;;;;;;5.43;2.13;;;19.60;66.20;;;;;;5054101;28;20064;-71
2021/08/30 02:27:50;;;;;;;3.83;1.80;;;19.60;66.20;;;;;;5054373;28;20032;-71
2021/08/30 02:30:31;;;;;;;3.20;1.70;;;19.60;66.30;;;;;;5042424;28;20060;-71
2021/08/30 02:33:02;;;;;;;4.00;1.70;;;19.50;66.30;;;;;;5054298;28;20013;-72
2021/08/30 02:35:30;;;;;;;3.90;1.70;;;19.50;66.30;;;;;;5054230;28;20469;-71
2021/08/30 02:37:57;;;;;;;3.58;1.63;;;19.50;66.30;;;;;;5053955;28;20053;-71
2021/08/30 02:40:27;;;;;;;4.47;2.10;;;19.50;66.30;;;;;;5054282;28;20112;-71
2021/08/30 02:42:54;;;;;;;3.70;1.60;;;19.50;66.30;;;;;;5054085;28;20353;-71
2021/08/30 02:45:21;;;;;;;3.42;1.77;;;19.50;66.40;;;;;;5054228;28;20021;-71
2021/08/30 02:47:49;;;;;;;3.78;1.70;;;19.50;66.30;;;;;;5054234;28;20104;-71
2021/08/30 02:50:15;;;;;;;4.97;2.00;;;19.50;66.30;;;;;;5053893;28;20017;-71
2021/08/30 02:52:43;;;;;;;4.07;1.92;;;19.50;66.30;;;;;;5053872;28;20056;-71
2021/08/30 02:55:09;;;;;;;3.60;1.80;;;19.50;66.40;;;;;;5052548;28;20440;-71
2021/08/30 02:57:36;;;;;;;5.22;2.38;;;19.50;66.30;;;;;;5053998;28;20063;-71
2021/08/30 03:00:03;;;;;;;3.67;1.80;;;19.50;66.30;;;;;;5053666;28;20029;-71
2021/08/30 03:02:30;;;;;;;4.00;2.20;;;19.50;66.40;;;;;;5053690;28;20354;-71
2021/08/30 03:04:57;;;;;;;4.07;1.98;;;19.50;66.40;;;;;;5053570;28;20029;-71
2021/08/30 03:07:28;;;;;;;3.33;1.90;;;19.50;66.40;;;;;;5053601;28;20029;-71
2021/08/30 03:09:56;;;;;;;4.38;2.15;;;19.50;66.40;;;;;;5053811;28;20037;-71
2021/08/30 03:12:22;;;;;;;3.63;1.70;;;19.50;66.40;;;;;;5053543;28;20021;-71
2021/08/30 03:14:48;;;;;;;4.25;1.95;;;19.50;66.40;;;;;;5053440;28;20036;-72
2021/08/30 03:17:15;;;;;;;4.47;1.85;;;19.50;66.40;;;;;;5053493;28;20064;-71
2021/08/30 03:19:44;;;;;;;4.05;2.03;;;19.50;66.40;;;;;;5053305;28;20052;-71
2021/08/30 03:22:11;;;;;;;3.70;1.80;;;19.50;66.40;;;;;;5053584;28;20095;-71
2021/08/30 03:24:40;;;;;;;4.47;2.13;;;19.50;66.40;;;;;;5053258;28;20062;-72
2021/08/30 03:27:08;;;;;;;4.63;1.95;;;19.50;66.50;;;;;;5058338;28;20021;-71
2021/08/30 03:29:33;;;;;;;4.47;2.15;;;19.50;66.40;;;;;;5060572;28;20035;-71
2021/08/30 03:32:01;;;;;;;3.13;1.58;;;19.50;66.40;;;;;;5059404;28;20025;-71
2021/08/30 03:34:27;;;;;;;4.82;2.00;;;19.50;66.50;;;;;;5054309;28;20100;-71
2021/08/30 03:36:53;;;;;;;5.40;2.00;;;19.50;66.40;;;;;;5052791;28;20512;-71
2021/08/30 03:39:20;;;;;;;4.88;2.22;;;19.50;66.40;;;;;;5055670;28;20397;-72
2021/08/30 03:41:46;;;;;;;3.38;1.90;;;19.50;66.50;;;;;;5057830;28;20383;-71
2021/08/30 03:44:12;;;;;;;4.55;2.05;;;19.50;66.50;;;;;;5053618;28;20100;-71
2021/08/30 03:46:39;;;;;;;3.55;1.98;;;19.50;66.50;;;;;;5053105;28;20048;-70
2021/08/30 03:49:05;;;;;;;5.40;2.40;;;19.50;66.50;;;;;;5053826;28;20032;-71
2021/08/30 03:51:31;;;;;;;3.83;1.80;;;19.50;66.40;;;;;;5053788;28;20021;-70
2021/08/30 03:53:57;;;;;;;5.45;2.10;;;19.50;66.50;;;;;;5053351;28;20380;-71
2021/08/30 03:56:25;;;;;;;4.32;2.10;;;19.50;66.50;;;;;;5052814;28;20021;-71
2021/08/30 03:58:52;;;;;;;5.45;2.30;;;19.50;66.50;;;;;;5052779;28;20496;-71
2021/08/30 04:01:23;;;;;;;4.53;2.10;;;19.50;66.50;;;;;;5052738;28;20059;-71
2021/08/30 04:03:51;;;;;;;4.80;2.00;;;19.50;66.50;;;;;;5053156;28;20029;-71
2021/08/30 04:06:17;;;;;;;4.88;2.30;;;19.50;66.50;;;;;;5051547;28;20120;-71
2021/08/30 04:08:42;;;;;;;5.93;2.78;;;19.50;66.50;;;;;;5052854;28;20100;-71
2021/08/30 04:11:10;;;;;;;3.80;1.88;;;19.50;66.50;;;;;;5052785;28;20380;-72
2021/08/30 04:13:38;;;;;;;3.78;2.10;;;19.50;66.50;;;;;;5052777;28;20477;-70
2021/08/30 04:16:04;;;;;;;4.47;2.20;;;19.50;66.50;;;;;;5052590;28;20033;-71
2021/08/30 04:18:30;;;;;;;4.65;2.30;;;19.50;66.60;;;;;;5052593;28;20037;-71
2021/08/30 04:20:55;;;;;;;4.95;2.00;;;19.50;66.60;;;;;;5052734;28;20124;-70
2021/08/30 04:23:21;;;;;;;4.80;2.40;;;19.50;66.60;;;;;;5052604;28;20057;-71
2021/08/30 04:25:46;;;;;;;3.78;2.00;;;19.50;66.60;;;;;;5052357;28;20055;-71
2021/08/30 04:28:12;;;;;;;4.78;2.22;;;19.50;66.50;;;;;;5052397;28;20036;-70
2021/08/30 04:30:38;;;;;;;4.40;1.95;;;19.50;66.60;;;;;;5052430;28;20039;-71
2021/08/30 04:33:09;;;;;;;4.43;2.38;;;19.50;66.60;;;;;;5052708;28;20072;-72
2021/08/30 04:35:34;;;;;;;4.68;2.15;;;19.50;66.60;;;;;;5052418;28;20028;-71
2021/08/30 04:38:00;;;;;;;4.38;2.10;;;19.50;66.60;;;;;;5052157;28;20049;-71
2021/08/30 04:40:25;;;;;;;5.18;2.55;;;19.50;66.70;;;;;;5050917;28;20095;-71
2021/08/30 04:42:51;;;;;;;4.30;2.20;;;19.40;66.70;;;;;;5052328;28;20060;-70
2021/08/30 04:45:17;;;;;;;4.07;1.98;;;19.50;66.70;;;;;;5052555;28;20075;-71
2021/08/30 04:47:42;;;;;;;5.22;2.60;;;19.50;66.60;;;;;;5052775;28;20021;-71
2021/08/30 04:50:08;;;;;;;3.92;2.10;;;19.50;66.70;;;;;;5056248;28;20031;-71
2021/08/30 04:52:34;;;;;;;4.35;2.17;;;19.50;66.70;;;;;;5056189;28;20029;-71
2021/08/30 04:54:59;;;;;;;4.90;2.50;;;19.50;66.70;;;;;;5054889;28;20500;-71
2021/08/30 04:57:25;;;;;;;4.70;2.35;;;19.40;66.70;;;;;;5056010;28;20033;-71
2021/08/30 04:59:50;;;;;;;3.97;2.25;;;19.40;66.70;;;;;;5055948;28;20040;-71
2021/08/30 05:02:16;;;;;;;5.18;2.13;;;19.50;66.70;;;;;;5056271;28;20028;-71
2021/08/30 05:04:41;;;;;;;4.82;2.22;;;19.40;66.70;;;;;;5055961;28;20082;-70
2021/08/30 05:07:07;;;;;;;4.90;2.40;;;19.40;66.70;;;;;;5055897;28;20096;-70
2021/08/30 05:09:33;;;;;;;6.53;2.30;;;19.40;66.70;;;;;;5055785;28;20124;-71
2021/08/30 05:11:58;;;;;;;4.15;2.28;;;19.40;66.70;;;;;;5055712;28;20021;-70
2021/08/30 05:14:24;;;;;;;5.47;2.47;;;19.40;66.80;;;;;;5055694;28;20020;-71
2021/08/30 05:16:49;;;;;;;5.55;2.50;;;19.40;66.80;;;;;;5055719;28;20017;-70
2021/08/30 05:19:15;;;;;;;4.80;2.40;;;19.40;66.80;;;;;;5055544;28;20094;-70
2021/08/30 05:21:40;;;;;;;5.47;2.63;;;19.40;66.80;;;;;;5055596;28;20506;-70
2021/08/30 05:24:09;;;;;;;5.00;2.30;;;19.40;66.80;;;;;;5055383;28;20477;-70
2021/08/30 05:26:35;;;;;;;4.75;2.15;;;19.40;66.80;;;;;;5055442;28;20021;-70
2021/08/30 05:29:01;;;;;;;5.18;2.53;;;19.40;66.80;;;;;;5055358;28;20090;-70
2021/08/30 05:31:27;;;;;;;4.68;2.28;;;19.40;66.80;;;;;;5055353;28;20465;-71
2021/08/30 05:33:52;;;;;;;5.47;2.65;;;19.40;66.80;;;;;;5055397;28;20032;-73
2021/08/30 05:36:18;;;;;;;6.65;2.28;;;19.40;66.80;;;;;;5055292;28;20060;-72
2021/08/30 05:38:44;;;;;;;5.63;2.28;;;19.40;66.80;;;;;;5055140;28;20135;-70
2021/08/30 05:41:09;;;;;;;4.85;2.67;;;19.40;66.80;;;;;;5055100;28;20380;-71
2021/08/30 05:43:35;;;;;;;4.70;2.55;;;19.40;66.70;;;;;;5055418;28;20029;-71
2021/08/30 05:46:01;;;;;;;4.32;2.25;;;19.40;66.80;;;;;;5053870;28;20085;-70
2021/08/30 05:48:26;;;;;;;4.43;2.20;;;19.50;66.80;;;;;;5053984;28;20033;-71
2021/08/30 05:50:52;;;;;;;4.75;2.25;;;19.40;66.80;;;;;;5055379;28;20021;-72
2021/08/30 05:53:19;;;;;;;5.38;2.63;;;19.40;66.80;;;;;;5055061;28;20443;-72
2021/08/30 05:55:45;;;;;;;4.72;2.25;;;19.40;66.80;;;;;;5054821;28;20100;-71
2021/08/30 05:58:10;;;;;;;5.97;2.67;;;19.40;66.80;;;;;;5054878;28;20495;-70
2021/08/30 06:00:36;;;;;;;5.32;2.92;;;19.50;66.80;;;;;;5053975;28;20068;-70
2021/08/30 06:03:01;;;;;;;5.07;2.45;;;19.50;66.80;;;;;;5054758;28;20526;-72
2021/08/30 06:05:27;;;;;;;4.55;2.28;;;19.50;66.70;;;;;;5054981;28;20036;-71
2021/08/30 06:07:52;;;;;;;5.57;2.42;;;19.50;66.70;;;;;;5054785;28;20464;-71
2021/08/30 06:10:18;;;;;;;4.43;2.22;;;19.50;66.70;;;;;;5054587;28;20024;-71
2021/08/30 06:12:44;;;;;;;5.22;2.40;;;19.50;66.70;;;;;;5054903;28;20100;-71
2021/08/30 06:15:10;;;;;;;5.35;2.80;;;19.50;66.70;;;;;;5054787;28;20384;-70
2021/08/30 06:17:35;;;;;;;4.95;2.53;;;19.40;66.70;;;;;;5044726;28;20064;-71
2021/08/30 06:20:01;;;;;;;4.90;2.47;;;19.50;66.70;;;;;;5047262;28;20040;-71
2021/08/30 06:22:26;;;;;;;5.30;2.42;;;19.50;66.60;;;;;;5045901;28;20155;-71
2021/08/30 06:24:52;;;;;;;5.97;2.92;;;19.50;66.70;;;;;;5046394;28;20029;-71
2021/08/30 06:27:20;;;;;;;5.72;2.58;;;19.50;66.50;;;;;;5038505;28;20102;-73
2021/08/30 06:29:47;;;;;;;5.45;2.60;;;19.50;66.60;;;;;;5041327;28;20095;-72
2021/08/30 06:32:12;;;;;;;6.13;2.70;;;19.50;66.40;;;;;;5061443;28;20349;-73
2021/08/30 06:34:39;;;;;;;5.95;3.10;;;19.50;66.40;;;;;;5041493;28;20025;-73
2021/08/30 06:37:04;;;;;;;6.07;3.20;;;19.50;66.60;;;;;;5052669;28;20488;-73
2021/08/30 06:39:30;;;;;;;5.22;2.55;;;19.50;66.50;;;;;;5053157;28;20040;-71
2021/08/30 06:41:55;;;;;;;4.93;2.50;;;19.60;66.60;;;;;;5055572;28;20550;-73
2021/08/30 06:44:21;;;;;;;5.88;2.72;;;19.60;66.70;;;;;;5049106;28;20076;-72
2021/08/30 06:46:47;;;;;;;5.35;2.80;;;19.60;66.50;;;;;;5050050;28;20029;-72
2021/08/30 06:49:12;;;;;;;5.40;2.60;;;19.60;66.50;;;;;;5052731;28;20028;-73
2021/08/30 06:51:38;;;;;;;8.65;3.00;;;19.60;66.30;;;;;;5053637;28;20021;-72
2021/08/30 06:54:03;;;;;;;5.35;3.00;;;19.60;66.30;;;;;;5052771;28;20048;-71
2021/08/30 06:56:29;;;;;;;5.70;3.20;;;19.70;66.40;;;;;;5050133;28;20060;-73
2021/08/30 06:58:54;;;;;;;5.50;3.00;;;19.70;66.30;;;;;;5051683;28;20063;-72
2021/08/30 07:01:20;;;;;;;5.65;2.90;;;19.70;66.30;;;;;;5053188;28;20492;-72
2021/08/30 07:03:45;;;;;;;5.68;3.00;;;19.70;66.20;;;;;;5051833;28;20017;-73
2021/08/30 07:06:11;;;;;;;6.25;2.92;;;19.70;66.20;;;;;;5052021;28;20116;-72
2021/08/30 07:08:36;;;;;;;7.63;3.10;;;19.70;66.20;;;;;;5059255;28;20546;-70
2021/08/30 07:11:02;;;;;;;5.57;2.78;;;19.70;66.10;;;;;;5056547;28;20480;-70
2021/08/30 07:13:28;;;;;;;5.85;3.05;;;19.70;66.10;;;;;;5051828;28;20039;-71
2021/08/30 07:15:53;;;;;;;4.93;2.80;;;19.80;66.10;;;;;;5052356;28;20060;-72
2021/08/30 07:18:19;;;;;;;6.32;3.08;;;19.80;66.10;;;;;;5052166;28;20392;-69
2021/08/30 07:20:44;;;;;;;7.78;3.05;;;19.70;66.10;;;;;;5039474;28;20102;-69
2021/08/30 07:23:10;;;;;;;6.28;3.17;;;19.80;66.20;;;;;;5049531;28;20025;-70
2021/08/30 07:25:36;;;;;;;5.95;3.03;;;19.80;66.20;;;;;;5050422;28;20623;-69
2021/08/30 07:28:01;;;;;;;6.43;3.00;;;19.80;66.10;;;;;;5056989;28;20021;-70
2021/08/30 07:30:27;;;;;;;6.20;2.88;;;19.80;66.20;;;;;;5072173;28;20086;-70
2021/08/30 07:32:52;;;;;;;5.72;2.97;;;19.80;66.20;;;;;;5053571;28;20041;-69
2021/08/30 07:35:18;;;;;;;6.60;2.95;;;19.90;66.20;;;;;;5064358;28;20029;-73
2021/08/30 07:37:44;;;;;;;7.22;3.22;;;19.80;66.30;;;;;;5049925;28;20159;-72
2021/08/30 07:40:11;;;;;;;5.15;2.83;;;19.80;66.30;;;;;;5032420;28;20067;-73
2021/08/30 07:42:37;;;;;;;7.32;2.85;;;19.90;66.40;;;;;;5049301;28;20024;-72
2021/08/30 07:45:03;;;;;;;7.20;3.33;;;19.90;66.30;;;;;;5051612;28;20396;-73
2021/08/30 07:47:29;;;;;;;5.32;2.80;;;19.90;66.30;;;;;;5056981;28;20029;-72
2021/08/30 07:49:54;;;;;;;6.55;2.60;;;19.90;66.20;;;;;;5051605;28;20040;-72
2021/08/30 07:52:20;;;;;;;6.07;2.83;;;19.90;66.20;;;;;;5051998;28;20028;-73
2021/08/30 07:54:47;;;;;;;5.28;2.90;;;19.90;66.20;;;;;;5052065;28;20518;-73
2021/08/30 07:57:13;;;;;;;5.55;3.03;;;19.90;66.20;;;;;;5051936;28;20090;-73
2021/08/30 07:59:39;;;;;;;6.10;3.63;;;20.00;66.20;;;;;;5052160;28;20040;-73
2021/08/30 08:02:04;;;;;;;6.47;3.50;;;20.00;66.20;;;;;;5053019;28;20085;-73
2021/08/30 08:04:30;;;;;;;7.10;3.35;;;20.00;66.20;;;;;;5051730;28;20025;-73
2021/08/30 08:06:55;;;;;;;7.47;3.45;;;20.00;66.20;;;;;;5057868;28;20025;-73
2021/08/30 08:09:21;;;;;;;8.23;3.75;;;20.00;66.20;;;;;;5064072;28;20032;-74
2021/08/30 08:11:47;;;;;;;6.78;3.15;;;20.00;66.20;;;;;;5060193;28;20167;-74
2021/08/30 08:14:13;;;;;;;5.88;2.90;;;20.00;66.20;;;;;;5062131;28;20029;-75
2021/08/30 08:16:38;;;;;;;6.47;3.20;;;20.00;66.20;;;;;;5066249;28;20059;-73
2021/08/30 08:19:04;;;;;;;6.97;3.63;;;20.00;66.20;;;;;;5052282;28;20037;-74
2021/08/30 08:21:30;;;;;;;5.97;2.85;;;20.00;66.10;;;;;;5053729;28;20497;-72
2021/08/30 08:23:55;;;;;;;6.20;3.47;;;20.00;66.20;;;;;;5041437;28;20481;-73
2021/08/30 08:26:21;;;;;;;6.68;3.22;;;20.10;66.30;;;;;;5056835;28;20029;-73
2021/08/30 08:28:47;;;;;;;6.75;3.13;;;20.10;66.20;;;;;;5055956;28;20037;-72
2021/08/30 08:31:13;;;;;;;6.53;3.72;;;20.10;66.20;;;;;;5054981;28;20037;-74
2021/08/30 08:33:38;;;;;;;7.40;3.08;;;20.10;66.10;;;;;;5056414;28;20380;-73
2021/08/30 08:36:04;;;;;;;6.07;3.40;;;20.20;66.10;;;;;;5055492;28;20033;-73
2021/08/30 08:38:30;;;;;;;7.65;3.10;;;20.10;66.10;;;;;;5053972;28;20053;-72
2021/08/30 08:40:55;;;;;;;6.45;3.38;;;20.20;66.10;;;;;;5041582;28;20033;-73
2021/08/30 08:43:21;;;;;;;7.07;3.70;;;20.20;66.10;;;;;;5046709;28;20033;-73
2021/08/30 08:45:50;;;;;;;6.93;3.45;;;20.20;66.10;;;;;;5053165;28;20025;-72
2021/08/30 08:48:16;;;;;;;5.53;3.25;;;20.20;66.10;;;;;;5053737;28;20017;-73
2021/08/30 08:50:44;;;;;;;7.47;3.67;;;20.20;66.10;;;;;;5055002;28;20021;-72
2021/08/30 08:53:09;;;;;;;6.95;3.47;;;20.20;66.10;;;;;;5053311;28;20040;-72
2021/08/30 08:55:37;;;;;;;8.43;3.30;;;20.20;66.10;;;;;;5055078;28;20828;-72
2021/08/30 08:58:14;;;;;;;6.50;3.45;;;20.20;66.10;;;;;;5053344;28;20043;-70
2021/08/30 09:00:41;;;;;;;6.97;3.72;;;20.20;66.20;;;;;;5054643;28;20044;-73
2021/08/30 09:03:17;;;;;;;6.25;3.58;;;20.20;66.20;;;;;;5049245;28;20025;-72
2021/08/30 09:05:43;;;;;;;6.13;3.40;;;20.20;66.30;;;;;;5053363;28;20045;-66
2021/08/30 09:08:46;;;;;;;6.65;3.80;;;20.20;66.20;;;;;;5046047;28;20021;-68
2021/08/30 09:11:18;;;;;;;7.55;3.22;;;20.20;66.30;;;;;;5016951;28;20057;-68
2021/08/30 09:13:51;;;;;;;8.00;3.90;;;20.30;66.20;;;;;;5030954;28;20060;-68
2021/08/30 09:16:19;;;;;;;7.43;3.90;;;20.30;66.20;;;;;;5051134;28;20052;-68
2021/08/30 09:18:45;;;;;;;6.90;3.60;;;20.30;66.30;;;;;;5043754;28;20134;-69
2021/08/30 09:21:11;;;;;;;6.72;3.28;;;20.30;66.20;;;;;;5043558;28;20224;-68
2021/08/30 09:23:39;;;;;;;6.10;3.60;;;20.30;66.20;;;;;;5034685;28;20052;-68
2021/08/30 09:26:05;;;;;;;6.78;3.45;;;20.30;66.20;;;;;;5035629;28;20029;-69
2021/08/30 09:28:38;;;;;;;5.85;3.20;;;20.30;66.20;;;;;;5034849;28;20026;-69
2021/08/30 09:31:03;;;;;;;7.97;4.25;;;20.30;66.20;;;;;;5033156;28;20117;-65
2021/08/30 09:33:29;;;;;;;6.35;3.38;;;20.30;66.20;;;;;;5034467;28;20448;-69
2021/08/30 09:35:56;;;;;;;9.13;4.22;;;20.30;66.30;;;;;;5040998;28;20090;-69
2021/08/30 09:38:23;;;;;;;7.95;3.97;;;20.30;66.30;;;;;;5054268;28;20086;-68
2021/08/30 09:40:48;;;;;;;7.75;3.78;;;20.30;66.30;;;;;;5032597;28;20037;-68
2021/08/30 09:43:21;;;;;;;11.77;5.10;;;20.30;66.20;;;;;;5041403;28;20035;-69
2021/08/30 09:45:47;;;;;;;8.73;4.20;;;20.30;66.30;;;;;;5053850;28;20025;-66
2021/08/30 09:48:24;;;;;;;7.22;3.95;;;20.30;66.20;;;;;;5049916;28;20025;-69
2021/08/30 09:50:49;;;;;;;8.65;3.80;;;20.30;66.20;;;;;;5046554;28;20080;-68
2021/08/30 09:53:15;;;;;;;6.68;3.53;;;20.30;66.30;;;;;;5034514;28;20500;-69
2021/08/30 09:55:41;;;;;;;6.50;3.45;;;20.30;66.30;;;;;;5040905;28;20033;-69
2021/08/30 09:58:06;;;;;;;7.55;3.85;;;20.40;66.30;;;;;;5053033;28;20480;-69
2021/08/30 10:00:34;;;;;;;7.75;3.50;;;20.30;66.20;;;;;;5053476;28;20037;-69
2021/08/30 10:03:00;;;;;;;7.13;3.55;;;20.40;66.20;;;;;;5046349;28;20022;-69
2021/08/30 10:05:28;;;;;;;8.63;3.90;;;20.40;66.20;;;;;;5053735;28;20505;-69
2021/08/30 10:07:54;;;;;;;7.18;3.70;;;20.40;66.20;;;;;;5049427;28;20026;-66
2021/08/30 10:10:22;;;;;;;6.78;3.63;;;20.40;66.20;;;;;;5034065;28;20084;-69
2021/08/30 10:12:48;;;;;;;12.02;4.18;;;20.40;66.30;;;;;;5049311;28;20033;-66
2021/08/30 10:15:18;;;;;;;7.05;3.70;;;20.40;66.20;;;;;;5053020;28;20542;-69
2021/08/30 10:17:47;;;;;;;7.03;3.75;;;20.40;66.30;;;;;;5041422;28;20512;-69
2021/08/30 10:20:24;;;;;;;7.13;4.05;;;20.40;66.30;;;;;;5052876;28;20041;-67
2021/08/30 10:23:05;;;;;;;8.50;4.13;;;20.40;66.30;;;;;;5046224;28;20048;-67
2021/08/30 10:25:32;;;;;;;6.60;4.07;;;20.40;66.20;;;;;;5052921;28;20021;-68
2021/08/30 10:28:04;;;;;;;7.32;4.18;;;20.40;66.20;;;;;;5053324;28;20013;-68
2021/08/30 10:30:32;;;;;;;9.80;3.75;;;20.40;66.20;;;;;;5049382;28;20071;-67
2021/08/30 10:33:01;;;;;;;8.82;4.28;;;20.50;66.20;;;;;;5051783;28;20495;-69
2021/08/30 10:35:30;;;;;;;7.22;3.97;;;20.50;66.20;;;;;;5052570;28;20079;-69
2021/08/30 10:37:59;;;;;;;6.70;4.07;;;20.50;66.20;;;;;;5052886;28;20065;-68
2021/08/30 10:40:28;;;;;;;6.60;4.00;;;20.50;66.20;;;;;;5045156;28;20032;-69
2021/08/30 10:43:03;;;;;;;7.53;4.50;;;20.50;66.30;;;;;;5051853;28;20428;-68
2021/08/30 10:45:35;;;;;;;7.22;4.18;;;20.50;66.20;;;;;;5048650;28;20508;-69
2021/08/30 10:48:04;;;;;;;7.68;4.18;;;20.50;66.20;;;;;;5047692;28;20416;-68
2021/08/30 10:50:30;;;;;;;9.35;4.28;;;20.50;66.10;;;;;;5050212;28;20060;-68
2021/08/30 10:53:04;;;;;;;7.32;4.20;;;20.50;66.20;;;;;;5044297;28;20514;-68
2021/08/30 10:55:42;;;;;;;8.32;4.15;;;20.50;66.10;;;;;;5050479;28;20036;-68
2021/08/30 10:58:15;;;;;;;6.80;4.05;;;20.50;66.10;;;;;;5032922;28;20033;-67
2021/08/30 11:00:40;;;;;;;8.05;3.72;;;20.60;66.00;;;;;;5032562;28;20029;-67
2021/08/30 11:03:06;;;;;;;6.18;3.67;;;20.60;66.10;;;;;;5033535;28;20044;-68
2021/08/30 11:05:32;;;;;;;6.28;3.75;;;20.60;66.00;;;;;;5032868;28;20036;-68
2021/08/30 11:07:57;;;;;;;6.63;3.67;;;20.60;66.10;;;;;;5032401;28;20026;-68
2021/08/30 11:10:25;;;;;;;8.05;4.25;;;20.60;66.20;;;;;;5055236;28;20388;-67
2021/08/30 11:12:52;;;;;;;7.93;3.95;;;20.70;65.90;;;;;;5059011;28;20025;-67
2021/08/30 11:15:18;;;;;;;7.38;4.15;;;20.70;65.90;;;;;;5052789;28;20103;-67
2021/08/30 11:17:44;;;;;;;8.55;4.57;;;20.70;65.90;;;;;;5056678;28;20014;-67
2021/08/30 11:20:14;;;;;;;7.28;3.83;;;20.80;65.90;;;;;;5032699;28;20045;-67
2021/08/30 11:22:40;;;;;;;8.70;4.35;;;20.70;65.80;;;;;;5032292;28;20108;-67
2021/08/30 11:25:06;;;;;;;6.88;3.78;;;20.80;65.80;;;;;;5032327;28;20156;-67
2021/08/30 11:27:34;;;;;;;7.15;4.30;;;20.80;65.70;;;;;;5032045;28;20025;-67
2021/08/30 11:30:10;;;;;;;7.45;4.10;;;20.80;65.70;;;;;;5032299;28;20156;-66
2021/08/30 11:32:37;;;;;;;8.27;4.03;;;20.90;65.50;;;;;;5032210;28;20029;-66
2021/08/30 11:35:03;;;;;;;6.78;3.83;;;20.90;65.70;;;;;;5031911;28;20029;-67
2021/08/30 11:37:32;;;;;;;6.45;4.10;;;20.90;65.60;;;;;;5046180;28;21778;-67
2021/08/30 11:40:00;;;;;;;7.80;3.95;;;21.00;65.50;;;;;;5046368;28;20049;-67
2021/08/30 11:42:29;;;;;;;7.38;3.97;;;21.00;65.40;;;;;;5061536;28;20020;-66
2021/08/30 11:44:55;;;;;;;9.63;4.15;;;21.00;65.40;;;;;;5055523;28;20029;-67
2021/08/30 11:47:21;;;;;;;7.55;4.03;;;21.10;65.30;;;;;;5049404;28;20033;-67
2021/08/30 11:49:52;;;;;;;6.75;3.70;;;21.10;65.10;;;;;;5035978;28;20033;-67
2021/08/30 11:52:20;;;;;;;7.03;3.85;;;21.20;64.90;;;;;;5050855;28;20025;-68
2021/08/30 11:55:08;;;;;;;8.68;4.32;;;21.20;64.80;;;;;;5046182;28;20045;-67
2021/08/30 11:57:46;;;;;;;8.55;4.82;;;21.30;64.70;;;;;;5048411;28;20021;-67
2021/08/30 12:00:15;;;;;;;7.25;3.92;;;21.30;64.80;;;;;;5062733;28;20040;-69
2021/08/30 12:02:41;;;;;;;7.55;4.38;;;21.30;64.70;;;;;;5031649;28;20034;-67
2021/08/30 12:05:08;;;;;;;8.10;4.10;;;21.30;64.70;;;;;;5034444;28;20634;-67
2021/08/30 12:07:35;;;;;;;7.13;4.18;;;21.30;64.70;;;;;;5043688;28;20481;-68
2021/08/30 12:10:05;;;;;;;7.50;4.30;;;21.30;64.70;;;;;;5032265;28;20029;-70
2021/08/30 12:12:37;;;;;;;6.85;4.15;;;21.30;64.80;;;;;;5047664;28;20025;-70
2021/08/30 12:15:06;;;;;;;7.78;4.22;;;21.30;64.80;;;;;;5051733;28;20029;-70
2021/08/30 12:17:37;;;;;;;6.88;4.05;;;21.30;64.80;;;;;;5039523;28;20014;-70
2021/08/30 12:20:06;;;;;;;7.50;4.00;;;21.30;64.80;;;;;;5031785;28;20041;-69
2021/08/30 12:22:53;;;;;;;7.47;3.80;;;21.40;64.60;;;;;;5044105;28;20108;-70
2021/08/30 12:25:19;;;;;;;7.50;4.38;;;21.40;64.70;;;;;;5048620;28;20039;-69
2021/08/30 12:27:46;;;;;;;8.25;4.38;;;21.40;64.80;;;;;;5052465;28;20025;-70
2021/08/30 12:30:19;;;;;;;7.90;4.28;;;21.40;64.80;;;;;;5055715;28;20064;-70
2021/08/30 12:32:51;;;;;;;6.68;3.90;;;21.40;64.80;;;;;;5033506;28;20025;-70
2021/08/30 12:35:20;;;;;;;8.38;4.22;;;21.50;64.70;;;;;;5051376;28;20035;-69
2021/08/30 12:37:49;;;;;;;7.57;4.38;;;21.50;64.50;;;;;;5051320;28;20037;-69
2021/08/30 12:40:19;;;;;;;7.55;4.10;;;21.50;64.40;;;;;;5052486;28;20488;-70
2021/08/30 12:42:44;;;;;;;9.18;4.18;;;21.60;64.50;;;;;;5053163;28;20017;-68
2021/08/30 12:45:11;;;;;;;5.93;3.72;;;21.60;64.30;;;;;;5051949;28;20021;-70
2021/08/30 12:47:36;;;;;;;7.88;4.78;;;21.70;64.20;;;;;;5032650;28;20018;-69
2021/08/30 12:50:03;;;;;;;9.70;4.22;;;21.70;64.30;;;;;;5040591;28;20040;-70
2021/08/30 12:52:28;;;;;;;7.72;4.38;;;21.70;64.20;;;;;;5067673;28;20502;-69